sensor_id;sensor_type;location;lat;lon;timestamp;temperature;humidity
19039;DHT22;9652;49.014;12.052;2023-03-14T00:02:07;13.90;71.10
19039;DHT22;9652;49.014;12.052;2023-03-14T00:04:34;13.90;71.20
19039;DHT22;9652;49.014;12.052;2023-03-14T00:07:03;13.90;71.10
19039;DHT22;9652;49.014;12.052;2023-03-14T00:09:30;13.90;71.20
19039;DHT22;9652;49.014;12.052;2023-03-14T00:11:58;13.90;71.10
19039;DHT22;9652;49.014;12.052;2023-03-14T00:14:25;13.80;71.10
19039;DHT22;9652;49.014;12.052;2023-03-14T00:16:52;13.80;71.20
19039;DHT22;9652;49.014;12.052;2023-03-14T00:19:20;13.80;71.10
19039;DHT22;9652;49.014;12.052;2023-03-14T00:21:48;13.80;71.20
19039;DHT22;9652;49.014;12.052;2023-03-14T00:24:15;13.80;71.20
19039;DHT22;9652;49.014;12.052;2023-03-14T00:26:42;13.80;71.10
19039;DHT22;9652;49.014;12.052;2023-03-14T00:29:09;13.80;71.00
19039;DHT22;9652;49.014;12.052;2023-03-14T00:31:36;13.80;71.10
19039;DHT22;9652;49.014;12.052;2023-03-14T00:34:08;13.70;71.20
19039;DHT22;9652;49.014;12.052;2023-03-14T00:36:36;13.70;71.20
19039;DHT22;9652;49.014;12.052;2023-03-14T00:39:05;13.70;71.20
19039;DHT22;9652;49.014;12.052;2023-03-14T00:41:32;13.70;71.20
19039;DHT22;9652;49.014;12.052;2023-03-14T00:43:59;13.70;71.30
19039;DHT22;9652;49.014;12.052;2023-03-14T00:46:26;13.60;71.30
19039;DHT22;9652;49.014;12.052;2023-03-14T00:48:53;13.60;71.50
19039;DHT22;9652;49.014;12.052;2023-03-14T00:51:22;13.70;71.60
19039;DHT22;9652;49.014;12.052;2023-03-14T00:53:51;13.70;71.70
19039;DHT22;9652;49.014;12.052;2023-03-14T00:56:18;13.70;71.90
19039;DHT22;9652;49.014;12.052;2023-03-14T00:58:45;13.70;71.90
19039;DHT22;9652;49.014;12.052;2023-03-14T01:01:14;13.60;71.90
19039;DHT22;9652;49.014;12.052;2023-03-14T01:03:42;13.60;72.10
19039;DHT22;9652;49.014;12.052;2023-03-14T01:06:11;13.60;72.10
19039;DHT22;9652;49.014;12.052;2023-03-14T01:08:42;13.70;72.30
19039;DHT22;9652;49.014;12.052;2023-03-14T01:11:13;13.60;72.30
19039;DHT22;9652;49.014;12.052;2023-03-14T01:13:42;13.60;72.60
19039;DHT22;9652;49.014;12.052;2023-03-14T01:16:11;13.60;72.50
19039;DHT22;9652;49.014;12.052;2023-03-14T01:18:40;13.70;72.70
19039;DHT22;9652;49.014;12.052;2023-03-14T01:21:11;13.70;72.70
19039;DHT22;9652;49.014;12.052;2023-03-14T01:23:40;13.60;72.70
19039;DHT22;9652;49.014;12.052;2023-03-14T01:26:10;13.70;72.70
19039;DHT22;9652;49.014;12.052;2023-03-14T01:28:38;13.60;72.80
19039;DHT22;9652;49.014;12.052;2023-03-14T01:31:07;13.70;72.90
19039;DHT22;9652;49.014;12.052;2023-03-14T01:33:36;13.70;72.90
19039;DHT22;9652;49.014;12.052;2023-03-14T01:36:04;13.70;72.90
19039;DHT22;9652;49.014;12.052;2023-03-14T01:38:34;13.70;73.00
19039;DHT22;9652;49.014;12.052;2023-03-14T01:41:03;13.70;73.10
19039;DHT22;9652;49.014;12.052;2023-03-14T01:43:32;13.70;73.00
19039;DHT22;9652;49.014;12.052;2023-03-14T01:46:22;13.70;73.10
19039;DHT22;9652;49.014;12.052;2023-03-14T01:48:57;13.70;73.70
19039;DHT22;9652;49.014;12.052;2023-03-14T01:51:35;13.70;73.10
19039;DHT22;9652;49.014;12.052;2023-03-14T01:54:12;13.80;73.30
19039;DHT22;9652;49.014;12.052;2023-03-14T01:56:45;13.70;73.30
19039;DHT22;9652;49.014;12.052;2023-03-14T01:59:18;13.70;73.10
19039;DHT22;9652;49.014;12.052;2023-03-14T02:01:46;13.70;73.20
19039;DHT22;9652;49.014;12.052;2023-03-14T02:04:16;13.80;73.00
19039;DHT22;9652;49.014;12.052;2023-03-14T02:06:50;13.70;73.00
19039;DHT22;9652;49.014;12.052;2023-03-14T02:09:23;13.80;73.30
19039;DHT22;9652;49.014;12.052;2023-03-14T02:11:51;13.70;73.00
19039;DHT22;9652;49.014;12.052;2023-03-14T02:14:35;13.70;73.10
19039;DHT22;9652;49.014;12.052;2023-03-14T02:17:35;13.60;73.20
19039;DHT22;9652;49.014;12.052;2023-03-14T02:20:29;13.70;73.80
19039;DHT22;9652;49.014;12.052;2023-03-14T02:23:01;13.70;73.40
19039;DHT22;9652;49.014;12.052;2023-03-14T02:25:39;13.60;72.70
19039;DHT22;9652;49.014;12.052;2023-03-14T02:28:12;13.60;72.90
19039;DHT22;9652;49.014;12.052;2023-03-14T02:30:40;13.60;72.70
19039;DHT22;9652;49.014;12.052;2023-03-14T02:33:08;13.50;72.70
19039;DHT22;9652;49.014;12.052;2023-03-14T02:35:42;13.50;72.70
19039;DHT22;9652;49.014;12.052;2023-03-14T02:38:19;13.50;72.80
19039;DHT22;9652;49.014;12.052;2023-03-14T02:40:50;13.40;72.70
19039;DHT22;9652;49.014;12.052;2023-03-14T02:43:19;13.40;72.70
19039;DHT22;9652;49.014;12.052;2023-03-14T02:45:53;13.40;72.90
19039;DHT22;9652;49.014;12.052;2023-03-14T02:48:25;13.40;72.70
19039;DHT22;9652;49.014;12.052;2023-03-14T02:50:57;13.40;72.80
19039;DHT22;9652;49.014;12.052;2023-03-14T02:53:29;13.30;72.70
19039;DHT22;9652;49.014;12.052;2023-03-14T02:56:02;13.30;72.70
19039;DHT22;9652;49.014;12.052;2023-03-14T02:58:33;13.30;72.50
19039;DHT22;9652;49.014;12.052;2023-03-14T03:01:12;13.30;72.60
19039;DHT22;9652;49.014;12.052;2023-03-14T03:03:39;13.30;72.50
19039;DHT22;9652;49.014;12.052;2023-03-14T03:06:07;13.20;72.50
19039;DHT22;9652;49.014;12.052;2023-03-14T03:08:34;13.20;72.60
19039;DHT22;9652;49.014;12.052;2023-03-14T03:11:01;13.20;72.70
19039;DHT22;9652;49.014;12.052;2023-03-14T03:13:33;13.20;72.70
19039;DHT22;9652;49.014;12.052;2023-03-14T03:16:03;13.10;72.80
19039;DHT22;9652;49.014;12.052;2023-03-14T03:18:33;13.10;72.80
19039;DHT22;9652;49.014;12.052;2023-03-14T03:21:01;13.10;72.80
19039;DHT22;9652;49.014;12.052;2023-03-14T03:23:29;13.10;73.00
19039;DHT22;9652;49.014;12.052;2023-03-14T03:25:57;13.10;73.00
19039;DHT22;9652;49.014;12.052;2023-03-14T03:28:24;13.00;72.90
19039;DHT22;9652;49.014;12.052;2023-03-14T03:30:53;13.10;73.00
19039;DHT22;9652;49.014;12.052;2023-03-14T03:33:20;13.10;73.00
19039;DHT22;9652;49.014;12.052;2023-03-14T03:35:49;13.10;73.10
19039;DHT22;9652;49.014;12.052;2023-03-14T03:38:28;13.10;73.10
19039;DHT22;9652;49.014;12.052;2023-03-14T03:40:57;13.00;72.80
19039;DHT22;9652;49.014;12.052;2023-03-14T03:43:26;13.00;72.90
19039;DHT22;9652;49.014;12.052;2023-03-14T03:45:55;13.00;73.00
19039;DHT22;9652;49.014;12.052;2023-03-14T03:48:23;13.00;73.00
19039;DHT22;9652;49.014;12.052;2023-03-14T03:50:50;13.00;73.00
19039;DHT22;9652;49.014;12.052;2023-03-14T03:53:20;13.10;72.90
19039;DHT22;9652;49.014;12.052;2023-03-14T03:55:48;12.90;72.70
19039;DHT22;9652;49.014;12.052;2023-03-14T03:58:15;13.00;72.70
19039;DHT22;9652;49.014;12.052;2023-03-14T04:00:42;13.00;72.70
19039;DHT22;9652;49.014;12.052;2023-03-14T04:03:11;13.00;72.70
19039;DHT22;9652;49.014;12.052;2023-03-14T04:05:38;12.90;72.70
19039;DHT22;9652;49.014;12.052;2023-03-14T04:08:09;13.00;72.70
19039;DHT22;9652;49.014;12.052;2023-03-14T04:10:37;13.00;72.70
19039;DHT22;9652;49.014;12.052;2023-03-14T04:13:15;13.10;72.80
19039;DHT22;9652;49.014;12.052;2023-03-14T04:15:47;13.00;72.70
19039;DHT22;9652;49.014;12.052;2023-03-14T04:18:22;13.00;72.70
19039;DHT22;9652;49.014;12.052;2023-03-14T04:20:51;13.00;72.80
19039;DHT22;9652;49.014;12.052;2023-03-14T04:23:21;13.00;72.80
19039;DHT22;9652;49.014;12.052;2023-03-14T04:25:55;12.90;72.70
19039;DHT22;9652;49.014;12.052;2023-03-14T04:28:24;12.90;72.70
19039;DHT22;9652;49.014;12.052;2023-03-14T04:30:51;12.90;72.70
19039;DHT22;9652;49.014;12.052;2023-03-14T04:33:23;12.90;72.70
19039;DHT22;9652;49.014;12.052;2023-03-14T04:35:55;12.90;72.70
19039;DHT22;9652;49.014;12.052;2023-03-14T04:38:22;12.90;72.70
19039;DHT22;9652;49.014;12.052;2023-03-14T04:40:50;12.90;72.70
19039;DHT22;9652;49.014;12.052;2023-03-14T04:43:19;12.90;72.70
19039;DHT22;9652;49.014;12.052;2023-03-14T04:45:51;12.90;72.70
19039;DHT22;9652;49.014;12.052;2023-03-14T04:48:20;12.90;72.70
19039;DHT22;9652;49.014;12.052;2023-03-14T04:50:49;12.90;72.80
19039;DHT22;9652;49.014;12.052;2023-03-14T04:53:19;12.90;72.80
19039;DHT22;9652;49.014;12.052;2023-03-14T04:55:49;12.80;72.70
19039;DHT22;9652;49.014;12.052;2023-03-14T04:58:17;12.80;72.60
19039;DHT22;9652;49.014;12.052;2023-03-14T05:00:46;12.80;72.70
19039;DHT22;9652;49.014;12.052;2023-03-14T05:03:33;12.80;72.70
19039;DHT22;9652;49.014;12.052;2023-03-14T05:06:22;12.80;72.70
19039;DHT22;9652;49.014;12.052;2023-03-14T05:09:01;12.80;72.70
19039;DHT22;9652;49.014;12.052;2023-03-14T05:11:52;12.80;72.80
19039;DHT22;9652;49.014;12.052;2023-03-14T05:14:51;12.80;72.80
19039;DHT22;9652;49.014;12.052;2023-03-14T05:17:32;12.80;72.80
19039;DHT22;9652;49.014;12.052;2023-03-14T05:20:30;12.70;72.80
19039;DHT22;9652;49.014;12.052;2023-03-14T05:23:15;12.70;72.80
19039;DHT22;9652;49.014;12.052;2023-03-14T05:26:01;12.70;72.90
19039;DHT22;9652;49.014;12.052;2023-03-14T05:28:47;12.70;72.80
19039;DHT22;9652;49.014;12.052;2023-03-14T05:31:32;12.70;72.90
19039;DHT22;9652;49.014;12.052;2023-03-14T05:34:09;12.70;72.90
19039;DHT22;9652;49.014;12.052;2023-03-14T05:36:49;12.70;72.90
19039;DHT22;9652;49.014;12.052;2023-03-14T05:39:46;12.70;73.00
19039;DHT22;9652;49.014;12.052;2023-03-14T05:42:41;12.70;73.00
19039;DHT22;9652;49.014;12.052;2023-03-14T05:45:19;12.70;72.90
19039;DHT22;9652;49.014;12.052;2023-03-14T05:47:52;12.70;72.90
19039;DHT22;9652;49.014;12.052;2023-03-14T05:50:38;12.70;73.00
19039;DHT22;9652;49.014;12.052;2023-03-14T05:53:20;12.70;72.90
19039;DHT22;9652;49.014;12.052;2023-03-14T05:56:09;12.70;72.90
19039;DHT22;9652;49.014;12.052;2023-03-14T05:58:46;12.80;73.00
19039;DHT22;9652;49.014;12.052;2023-03-14T06:01:38;12.70;72.80
19039;DHT22;9652;49.014;12.052;2023-03-14T06:04:13;12.70;72.90
19039;DHT22;9652;49.014;12.052;2023-03-14T06:06:42;12.70;72.90
19039;DHT22;9652;49.014;12.052;2023-03-14T06:09:11;12.70;72.90
19039;DHT22;9652;49.014;12.052;2023-03-14T06:11:43;12.80;73.00
19039;DHT22;9652;49.014;12.052;2023-03-14T06:14:11;12.80;73.00
19039;DHT22;9652;49.014;12.052;2023-03-14T06:16:42;12.90;73.10
19039;DHT22;9652;49.014;12.052;2023-03-14T06:19:10;12.80;72.90
19039;DHT22;9652;49.014;12.052;2023-03-14T06:21:38;12.80;72.90
19039;DHT22;9652;49.014;12.052;2023-03-14T06:24:05;12.80;72.90
19039;DHT22;9652;49.014;12.052;2023-03-14T06:26:38;12.90;73.00
19039;DHT22;9652;49.014;12.052;2023-03-14T06:29:07;12.90;72.80
19039;DHT22;9652;49.014;12.052;2023-03-14T06:31:34;12.90;72.80
19039;DHT22;9652;49.014;12.052;2023-03-14T06:34:05;12.80;72.70
19039;DHT22;9652;49.014;12.052;2023-03-14T06:36:32;12.90;72.70
19039;DHT22;9652;49.014;12.052;2023-03-14T06:39:00;13.00;72.70
19039;DHT22;9652;49.014;12.052;2023-03-14T06:41:30;13.00;72.70
19039;DHT22;9652;49.014;12.052;2023-03-14T06:43:59;13.00;72.60
19039;DHT22;9652;49.014;12.052;2023-03-14T06:46:27;13.10;72.50
19039;DHT22;9652;49.014;12.052;2023-03-14T06:48:55;13.10;72.40
19039;DHT22;9652;49.014;12.052;2023-03-14T06:51:22;13.10;72.30
19039;DHT22;9652;49.014;12.052;2023-03-14T06:53:50;13.20;72.30
19039;DHT22;9652;49.014;12.052;2023-03-14T06:56:19;13.20;72.20
19039;DHT22;9652;49.014;12.052;2023-03-14T06:58:47;13.20;72.20
19039;DHT22;9652;49.014;12.052;2023-03-14T07:01:20;13.20;72.20
19039;DHT22;9652;49.014;12.052;2023-03-14T07:03:51;13.20;72.10
19039;DHT22;9652;49.014;12.052;2023-03-14T07:06:18;13.30;72.20
19039;DHT22;9652;49.014;12.052;2023-03-14T07:08:47;13.30;72.20
19039;DHT22;9652;49.014;12.052;2023-03-14T07:11:16;13.40;72.20
19039;DHT22;9652;49.014;12.052;2023-03-14T07:13:43;13.40;72.00
19039;DHT22;9652;49.014;12.052;2023-03-14T07:16:10;13.40;71.80
19039;DHT22;9652;49.014;12.052;2023-03-14T07:18:38;13.40;71.80
19039;DHT22;9652;49.014;12.052;2023-03-14T07:21:08;13.50;71.70
19039;DHT22;9652;49.014;12.052;2023-03-14T07:23:36;13.50;71.60
19039;DHT22;9652;49.014;12.052;2023-03-14T07:26:03;13.50;71.50
19039;DHT22;9652;49.014;12.052;2023-03-14T07:28:32;13.50;71.50
19039;DHT22;9652;49.014;12.052;2023-03-14T07:31:13;13.60;71.40
19039;DHT22;9652;49.014;12.052;2023-03-14T07:33:41;13.60;71.30
19039;DHT22;9652;49.014;12.052;2023-03-14T07:36:10;13.60;71.20
19039;DHT22;9652;49.014;12.052;2023-03-14T07:38:40;13.70;71.20
19039;DHT22;9652;49.014;12.052;2023-03-14T07:41:22;13.70;71.30
19039;DHT22;9652;49.014;12.052;2023-03-14T07:44:12;13.70;71.10
19039;DHT22;9652;49.014;12.052;2023-03-14T07:46:39;13.80;71.10
19039;DHT22;9652;49.014;12.052;2023-03-14T07:49:06;13.90;71.10
19039;DHT22;9652;49.014;12.052;2023-03-14T07:51:35;13.90;70.90
19039;DHT22;9652;49.014;12.052;2023-03-14T07:54:02;13.90;70.60
19039;DHT22;9652;49.014;12.052;2023-03-14T07:56:29;13.90;70.40
19039;DHT22;9652;49.014;12.052;2023-03-14T07:58:56;14.00;70.40
19039;DHT22;9652;49.014;12.052;2023-03-14T08:01:24;13.90;70.20
19039;DHT22;9652;49.014;12.052;2023-03-14T08:03:51;14.00;70.20
19039;DHT22;9652;49.014;12.052;2023-03-14T08:06:18;14.00;70.10
19039;DHT22;9652;49.014;12.052;2023-03-14T08:08:46;14.00;70.00
19039;DHT22;9652;49.014;12.052;2023-03-14T08:11:13;14.00;70.00
19039;DHT22;9652;49.014;12.052;2023-03-14T08:13:41;14.00;70.00
19039;DHT22;9652;49.014;12.052;2023-03-14T08:16:15;14.00;70.00
19039;DHT22;9652;49.014;12.052;2023-03-14T08:18:42;14.10;70.10
19039;DHT22;9652;49.014;12.052;2023-03-14T08:21:10;14.10;70.10
19039;DHT22;9652;49.014;12.052;2023-03-14T08:23:37;14.10;70.20
19039;DHT22;9652;49.014;12.052;2023-03-14T08:26:07;14.20;70.20
19039;DHT22;9652;49.014;12.052;2023-03-14T08:28:34;14.30;70.20
19039;DHT22;9652;49.014;12.052;2023-03-14T08:31:01;14.30;70.20
19039;DHT22;9652;49.014;12.052;2023-03-14T08:33:29;14.40;70.10
19039;DHT22;9652;49.014;12.052;2023-03-14T08:35:58;14.50;70.00
19039;DHT22;9652;49.014;12.052;2023-03-14T08:38:27;14.50;69.90
19039;DHT22;9652;49.014;12.052;2023-03-14T08:40:58;14.60;69.80
19039;DHT22;9652;49.014;12.052;2023-03-14T08:43:27;14.70;69.50
19039;DHT22;9652;49.014;12.052;2023-03-14T08:45:57;14.80;69.60
19039;DHT22;9652;49.014;12.052;2023-03-14T08:48:25;14.90;69.60
19039;DHT22;9652;49.014;12.052;2023-03-14T08:50:55;14.90;69.50
19039;DHT22;9652;49.014;12.052;2023-03-14T08:53:22;15.10;69.40
19039;DHT22;9652;49.014;12.052;2023-03-14T08:55:52;15.20;69.30
19039;DHT22;9652;49.014;12.052;2023-03-14T08:58:20;15.30;69.00
19039;DHT22;9652;49.014;12.052;2023-03-14T09:00:49;15.40;69.00
19039;DHT22;9652;49.014;12.052;2023-03-14T09:03:17;15.40;68.70
19039;DHT22;9652;49.014;12.052;2023-03-14T09:05:44;15.60;68.60
19039;DHT22;9652;49.014;12.052;2023-03-14T09:08:11;15.70;68.30
19039;DHT22;9652;49.014;12.052;2023-03-14T09:10:38;15.70;67.80
19039;DHT22;9652;49.014;12.052;2023-03-14T09:13:05;15.80;67.60
19039;DHT22;9652;49.014;12.052;2023-03-14T09:15:32;15.90;67.30
19039;DHT22;9652;49.014;12.052;2023-03-14T09:18:01;16.00;67.20
19039;DHT22;9652;49.014;12.052;2023-03-14T09:20:28;16.00;66.90
19039;DHT22;9652;49.014;12.052;2023-03-14T09:22:55;16.10;66.80
19039;DHT22;9652;49.014;12.052;2023-03-14T09:25:22;16.10;66.40
19039;DHT22;9652;49.014;12.052;2023-03-14T09:27:49;16.20;66.40
19039;DHT22;9652;49.014;12.052;2023-03-14T09:30:16;16.20;66.10
19039;DHT22;9652;49.014;12.052;2023-03-14T09:32:44;16.30;65.90
19039;DHT22;9652;49.014;12.052;2023-03-14T09:35:12;16.30;65.40
19039;DHT22;9652;49.014;12.052;2023-03-14T09:37:39;16.40;65.00
19039;DHT22;9652;49.014;12.052;2023-03-14T09:40:12;16.40;64.90
19039;DHT22;9652;49.014;12.052;2023-03-14T09:42:41;16.40;64.40
19039;DHT22;9652;49.014;12.052;2023-03-14T09:45:12;16.40;64.60
19039;DHT22;9652;49.014;12.052;2023-03-14T09:47:44;16.50;64.20
19039;DHT22;9652;49.014;12.052;2023-03-14T09:50:15;16.50;64.50
19039;DHT22;9652;49.014;12.052;2023-03-14T09:52:45;16.50;64.00
19039;DHT22;9652;49.014;12.052;2023-03-14T09:55:16;16.50;64.20
19039;DHT22;9652;49.014;12.052;2023-03-14T09:57:48;16.60;64.40
19039;DHT22;9652;49.014;12.052;2023-03-14T10:00:20;16.60;64.20
19039;DHT22;9652;49.014;12.052;2023-03-14T10:02:52;16.70;63.90
19039;DHT22;9652;49.014;12.052;2023-03-14T10:05:25;16.70;63.50
19039;DHT22;9652;49.014;12.052;2023-03-14T10:07:53;16.80;63.40
19039;DHT22;9652;49.014;12.052;2023-03-14T10:10:22;16.80;63.00
19039;DHT22;9652;49.014;12.052;2023-03-14T10:12:55;16.80;62.80
19039;DHT22;9652;49.014;12.052;2023-03-14T10:15:26;16.80;61.90
19039;DHT22;9652;49.014;12.052;2023-03-14T10:17:59;16.80;61.50
19039;DHT22;9652;49.014;12.052;2023-03-14T10:20:32;16.80;61.60
19039;DHT22;9652;49.014;12.052;2023-03-14T10:23:02;16.80;61.10
19039;DHT22;9652;49.014;12.052;2023-03-14T10:25:32;16.80;61.80
19039;DHT22;9652;49.014;12.052;2023-03-14T10:28:02;16.80;62.00
19039;DHT22;9652;49.014;12.052;2023-03-14T10:30:40;16.70;62.00
19039;DHT22;9652;49.014;12.052;2023-03-14T10:33:15;16.80;61.80
19039;DHT22;9652;49.014;12.052;2023-03-14T10:35:52;16.80;61.80
19039;DHT22;9652;49.014;12.052;2023-03-14T10:38:22;16.90;61.60
19039;DHT22;9652;49.014;12.052;2023-03-14T10:40:53;16.90;61.90
19039;DHT22;9652;49.014;12.052;2023-03-14T10:43:24;17.00;62.00
19039;DHT22;9652;49.014;12.052;2023-03-14T10:45:55;17.10;62.10
19039;DHT22;9652;49.014;12.052;2023-03-14T10:48:30;17.20;61.80
19039;DHT22;9652;49.014;12.052;2023-03-14T10:51:05;17.30;60.70
19039;DHT22;9652;49.014;12.052;2023-03-14T10:53:39;17.40;60.50
19039;DHT22;9652;49.014;12.052;2023-03-14T10:56:11;17.40;61.10
19039;DHT22;9652;49.014;12.052;2023-03-14T10:58:41;17.50;60.70
19039;DHT22;9652;49.014;12.052;2023-03-14T11:04:15;17.70;60.00
19039;DHT22;9652;49.014;12.052;2023-03-14T11:06:56;17.80;60.00
19039;DHT22;9652;49.014;12.052;2023-03-14T11:09:32;17.90;59.70
19039;DHT22;9652;49.014;12.052;2023-03-14T11:12:35;18.00;59.60
19039;DHT22;9652;49.014;12.052;2023-03-14T11:15:15;18.00;59.00
19039;DHT22;9652;49.014;12.052;2023-03-14T11:17:58;18.10;59.20
19039;DHT22;9652;49.014;12.052;2023-03-14T11:20:38;18.10;59.50
19039;DHT22;9652;49.014;12.052;2023-03-14T11:23:17;18.10;59.10
19039;DHT22;9652;49.014;12.052;2023-03-14T11:25:54;18.10;58.60
19039;DHT22;9652;49.014;12.052;2023-03-14T11:28:32;18.00;58.10
19039;DHT22;9652;49.014;12.052;2023-03-14T11:31:11;17.90;58.20
19039;DHT22;9652;49.014;12.052;2023-03-14T11:33:48;17.70;58.10
19039;DHT22;9652;49.014;12.052;2023-03-14T11:36:23;17.80;58.50
19039;DHT22;9652;49.014;12.052;2023-03-14T11:38:59;17.80;58.90
19039;DHT22;9652;49.014;12.052;2023-03-14T11:41:30;17.80;59.00
19039;DHT22;9652;49.014;12.052;2023-03-14T11:44:04;17.80;58.90
19039;DHT22;9652;49.014;12.052;2023-03-14T11:46:43;17.90;58.90
19039;DHT22;9652;49.014;12.052;2023-03-14T11:49:24;18.00;59.20
19039;DHT22;9652;49.014;12.052;2023-03-14T11:52:00;18.00;59.00
19039;DHT22;9652;49.014;12.052;2023-03-14T11:54:35;18.20;59.30
19039;DHT22;9652;49.014;12.052;2023-03-14T11:57:12;18.30;58.90
19039;DHT22;9652;49.014;12.052;2023-03-14T11:59:47;18.40;59.00
19039;DHT22;9652;49.014;12.052;2023-03-14T12:02:23;18.50;58.70
19039;DHT22;9652;49.014;12.052;2023-03-14T12:08:42;18.70;58.30
19039;DHT22;9652;49.014;12.052;2023-03-14T12:11:19;18.90;57.90
19039;DHT22;9652;49.014;12.052;2023-03-14T12:13:52;19.10;57.60
19039;DHT22;9652;49.014;12.052;2023-03-14T12:16:33;19.20;58.10
19039;DHT22;9652;49.014;12.052;2023-03-14T12:19:27;19.30;56.80
19039;DHT22;9652;49.014;12.052;2023-03-14T12:22:00;19.40;56.00
19039;DHT22;9652;49.014;12.052;2023-03-14T12:24:36;19.40;56.60
19039;DHT22;9652;49.014;12.052;2023-03-14T12:27:10;19.40;56.50
19039;DHT22;9652;49.014;12.052;2023-03-14T12:29:58;19.40;56.20
19039;DHT22;9652;49.014;12.052;2023-03-14T12:32:26;19.30;55.10
19039;DHT22;9652;49.014;12.052;2023-03-14T12:34:54;19.20;56.00
19039;DHT22;9652;49.014;12.052;2023-03-14T12:37:29;19.10;56.00
19039;DHT22;9652;49.014;12.052;2023-03-14T12:40:17;19.00;55.50
19039;DHT22;9652;49.014;12.052;2023-03-14T12:42:57;18.80;55.00
19039;DHT22;9652;49.014;12.052;2023-03-14T12:45:28;18.70;54.80
19039;DHT22;9652;49.014;12.052;2023-03-14T12:48:09;18.50;55.50
19039;DHT22;9652;49.014;12.052;2023-03-14T12:50:43;18.40;55.30
19039;DHT22;9652;49.014;12.052;2023-03-14T12:56:46;18.30;55.60
19039;DHT22;9652;49.014;12.052;2023-03-14T12:59:46;18.40;56.60
19039;DHT22;9652;49.014;12.052;2023-03-14T13:02:25;18.40;56.80
19039;DHT22;9652;49.014;12.052;2023-03-14T13:05:01;18.30;56.40
19039;DHT22;9652;49.014;12.052;2023-03-14T13:07:34;18.30;56.60
19039;DHT22;9652;49.014;12.052;2023-03-14T13:10:23;18.20;56.60
19039;DHT22;9652;49.014;12.052;2023-03-14T13:12:54;18.20;56.60
19039;DHT22;9652;49.014;12.052;2023-03-14T13:15:33;18.10;56.60
19039;DHT22;9652;49.014;12.052;2023-03-14T13:18:10;17.90;56.40
19039;DHT22;9652;49.014;12.052;2023-03-14T13:20:44;17.80;56.60
19039;DHT22;9652;49.014;12.052;2023-03-14T13:23:23;17.80;56.80
19039;DHT22;9652;49.014;12.052;2023-03-14T13:25:52;17.70;57.00
19039;DHT22;9652;49.014;12.052;2023-03-14T13:28:19;17.60;57.10
19039;DHT22;9652;49.014;12.052;2023-03-14T13:30:49;17.40;57.50
19039;DHT22;9652;49.014;12.052;2023-03-14T13:33:23;17.30;57.90
19039;DHT22;9652;49.014;12.052;2023-03-14T13:35:55;17.20;58.50
19039;DHT22;9652;49.014;12.052;2023-03-14T13:38:25;17.10;58.80
19039;DHT22;9652;49.014;12.052;2023-03-14T13:40:56;17.00;58.80
19039;DHT22;9652;49.014;12.052;2023-03-14T13:43:28;16.90;59.00
19039;DHT22;9652;49.014;12.052;2023-03-14T13:46:03;16.80;59.10
19039;DHT22;9652;49.014;12.052;2023-03-14T13:48:35;16.80;59.30
19039;DHT22;9652;49.014;12.052;2023-03-14T13:51:12;16.80;60.00
19039;DHT22;9652;49.014;12.052;2023-03-14T13:53:44;16.80;59.70
19039;DHT22;9652;49.014;12.052;2023-03-14T13:56:13;16.70;59.60
19039;DHT22;9652;49.014;12.052;2023-03-14T13:58:41;16.70;59.60
19039;DHT22;9652;49.014;12.052;2023-03-14T14:01:16;16.70;59.90
19039;DHT22;9652;49.014;12.052;2023-03-14T14:03:48;16.70;60.10
19039;DHT22;9652;49.014;12.052;2023-03-14T14:06:23;16.70;60.30
19039;DHT22;9652;49.014;12.052;2023-03-14T14:08:54;16.60;61.50
19039;DHT22;9652;49.014;12.052;2023-03-14T14:11:33;16.50;62.00
19039;DHT22;9652;49.014;12.052;2023-03-14T14:14:06;16.30;64.10
19039;DHT22;9652;49.014;12.052;2023-03-14T14:16:41;16.00;63.80
19039;DHT22;9652;49.014;12.052;2023-03-14T14:19:11;15.80;65.00
19039;DHT22;9652;49.014;12.052;2023-03-14T14:21:39;15.60;65.80
19039;DHT22;9652;49.014;12.052;2023-03-14T14:24:08;15.30;66.10
19039;DHT22;9652;49.014;12.052;2023-03-14T14:26:40;15.10;67.40
19039;DHT22;9652;49.014;12.052;2023-03-14T14:29:23;14.90;68.60
19039;DHT22;9652;49.014;12.052;2023-03-14T14:32:02;14.80;69.80
19039;DHT22;9652;49.014;12.052;2023-03-14T14:34:39;14.60;71.00
19039;DHT22;9652;49.014;12.052;2023-03-14T14:37:20;14.50;71.60
19039;DHT22;9652;49.014;12.052;2023-03-14T14:39:51;14.40;72.70
19039;DHT22;9652;49.014;12.052;2023-03-14T14:42:21;14.30;73.00
19039;DHT22;9652;49.014;12.052;2023-03-14T14:44:51;14.30;73.60
19039;DHT22;9652;49.014;12.052;2023-03-14T14:47:22;14.20;73.80
19039;DHT22;9652;49.014;12.052;2023-03-14T14:49:52;14.20;74.30
19039;DHT22;9652;49.014;12.052;2023-03-14T14:52:22;14.20;74.60
19039;DHT22;9652;49.014;12.052;2023-03-14T14:55:01;14.10;74.70
19039;DHT22;9652;49.014;12.052;2023-03-14T14:57:31;14.10;74.80
19039;DHT22;9652;49.014;12.052;2023-03-14T15:00:05;14.10;75.20
19039;DHT22;9652;49.014;12.052;2023-03-14T15:02:40;14.00;75.50
19039;DHT22;9652;49.014;12.052;2023-03-14T15:05:12;14.00;75.60
19039;DHT22;9652;49.014;12.052;2023-03-14T15:07:41;14.00;75.60
19039;DHT22;9652;49.014;12.052;2023-03-14T15:10:10;13.90;75.90
19039;DHT22;9652;49.014;12.052;2023-03-14T15:12:38;13.90;76.10
19039;DHT22;9652;49.014;12.052;2023-03-14T15:15:07;13.90;76.30
19039;DHT22;9652;49.014;12.052;2023-03-14T15:17:35;13.80;76.50
19039;DHT22;9652;49.014;12.052;2023-03-14T15:20:09;13.80;76.60
19039;DHT22;9652;49.014;12.052;2023-03-14T15:22:39;13.80;76.80
19039;DHT22;9652;49.014;12.052;2023-03-14T15:25:07;13.70;76.80
19039;DHT22;9652;49.014;12.052;2023-03-14T15:27:36;13.70;76.90
19039;DHT22;9652;49.014;12.052;2023-03-14T15:30:10;13.70;77.00
19039;DHT22;9652;49.014;12.052;2023-03-14T15:32:38;13.70;77.40
19039;DHT22;9652;49.014;12.052;2023-03-14T15:35:07;13.60;77.00
19039;DHT22;9652;49.014;12.052;2023-03-14T15:37:35;13.60;77.10
19039;DHT22;9652;49.014;12.052;2023-03-14T15:40:03;13.50;76.90
19039;DHT22;9652;49.014;12.052;2023-03-14T15:42:37;13.50;76.90
19039;DHT22;9652;49.014;12.052;2023-03-14T15:45:05;13.30;77.00
19039;DHT22;9652;49.014;12.052;2023-03-14T15:47:33;13.30;77.10
19039;DHT22;9652;49.014;12.052;2023-03-14T15:50:00;13.20;77.10
19039;DHT22;9652;49.014;12.052;2023-03-14T15:52:28;13.00;76.60
19039;DHT22;9652;49.014;12.052;2023-03-14T15:54:55;13.00;76.90
19039;DHT22;9652;49.014;12.052;2023-03-14T15:57:22;12.80;77.10
19039;DHT22;9652;49.014;12.052;2023-03-14T15:59:50;12.70;77.00
19039;DHT22;9652;49.014;12.052;2023-03-14T16:02:17;12.60;76.70
19039;DHT22;9652;49.014;12.052;2023-03-14T16:04:44;12.50;77.10
19039;DHT22;9652;49.014;12.052;2023-03-14T16:07:11;12.40;77.40
19039;DHT22;9652;49.014;12.052;2023-03-14T16:09:39;12.40;77.70
19039;DHT22;9652;49.014;12.052;2023-03-14T16:12:07;12.30;77.80